Time;durP1;ratioP1;P1;durP2;ratioP2;P2;SDS_P1;SDS_P2;PMS_P1;PMS_P2;Temp;Humidity;BMP_temperature;BMP_pressure;BME280_temperature;BME280_humidity;BME280_pressure;Samples;Min_cycle;Max_cycle;Signal;HPM_P1;HPM_P2
2022/05/17 00:00:27;;;;;;;9.73;4.08;;;;;;;10.12;47.86;100325.51;1657195;86;21019;-55
2022/05/17 00:02:57;;;;;;;9.53;3.98;;;;;;;10.07;47.97;100319.78;1657195;86;20995;-55
2022/05/17 00:05:27;;;;;;;8.00;3.60;;;;;;;9.99;48.10;100317.17;1657015;86;21475;-54
2022/05/17 00:07:56;;;;;;;9.25;4.25;;;;;;;9.96;48.15;100315.67;1657371;86;21008;-55
2022/05/17 00:10:27;;;;;;;7.97;3.98;;;;;;;9.96;48.22;100306.62;1657136;86;21012;-56
2022/05/17 00:12:57;;;;;;;9.45;3.72;;;;;;;9.95;48.22;100311.77;1657148;86;21020;-55
2022/05/17 00:15:26;;;;;;;9.48;4.00;;;;;;;9.93;48.36;100312.48;1657061;86;21019;-55
2022/05/17 00:17:54;;;;;;;9.78;3.98;;;;;;;9.93;48.40;100311.12;1657088;86;20996;-55
2022/05/17 00:20:23;;;;;;;10.70;4.40;;;;;;;9.88;48.53;100314.96;1657149;86;21032;-56
2022/05/17 00:22:52;;;;;;;10.03;4.28;;;;;;;9.80;48.98;100318.67;1656828;86;21460;-56
2022/05/17 00:25:23;;;;;;;8.03;3.75;;;;;;;9.76;49.32;100316.84;1657071;86;21059;-55
2022/05/17 00:27:52;;;;;;;13.38;4.33;;;;;;;9.77;49.38;100310.34;1636665;86;21040;-55
2022/05/17 00:30:21;;;;;;;8.88;4.33;;;;;;;9.78;49.20;100305.19;1657123;86;21019;-55
2022/05/17 00:32:50;;;;;;;9.45;4.33;;;;;;;9.79;49.20;100311.51;1657219;86;21004;-55
2022/05/17 00:35:19;;;;;;;8.50;4.45;;;;;;;9.80;49.07;100311.83;1657051;86;21011;-55
2022/05/17 00:37:49;;;;;;;10.88;4.37;;;;;;;9.82;49.03;100309.23;1657134;86;21011;-55
2022/05/17 00:40:18;;;;;;;13.35;5.00;;;;;;;9.86;48.96;100312.42;1657276;86;20995;-55
2022/05/17 00:42:46;;;;;;;9.75;4.50;;;;;;;9.90;48.90;100310.14;1657071;86;21004;-55
2022/05/17 00:45:15;;;;;;;9.08;4.45;;;;;;;9.92;48.78;100305.31;1657240;86;21444;-56
2022/05/17 00:47:48;;;;;;;10.63;4.17;;;;;;;9.94;48.75;100310.07;1657268;86;21456;-55
2022/05/17 00:50:34;;;;;;;10.75;5.05;;;;;;;9.94;48.80;100308.18;1657145;85;21028;-55
2022/05/17 00:53:14;;;;;;;12.95;4.95;;;;;;;9.98;48.75;100302.64;1655794;85;21036;-55
2022/05/17 00:56:00;;;;;;;9.50;4.28;;;;;;;10.02;48.72;100312.67;1657226;86;21012;-55
2022/05/17 00:58:38;;;;;;;11.15;5.40;;;;;;;10.07;48.71;100304.72;1657069;86;20980;-55
2022/05/17 01:01:13;;;;;;;10.13;4.87;;;;;;;10.13;48.63;100297.09;1657098;86;21547;-55
2022/05/17 01:03:56;;;;;;;12.85;4.80;;;;;;;10.21;48.52;100298.87;1657084;86;21019;-56
2022/05/17 01:06:32;;;;;;;9.95;5.00;;;;;;;10.22;48.50;100294.56;1657129;86;20964;-54
2022/05/17 01:09:01;;;;;;;16.55;5.17;;;;;;;10.22;48.33;100293.20;1657118;86;21052;-54
2022/05/17 01:11:30;;;;;;;13.90;5.35;;;;;;;10.26;48.32;100293.12;1657128;86;21019;-54
2022/05/17 01:16:48;;;;;;;11.25;5.37;;;;;;;10.31;48.46;100294.75;1657086;86;21432;-56
2022/05/17 01:19:17;;;;;;;10.45;4.35;;;;;;;10.32;48.33;100285.48;1657139;86;20976;-55
2022/05/17 01:21:45;;;;;;;7.87;3.70;;;;;;;10.38;47.75;100285.21;1657129;86;21428;-54
2022/05/17 01:24:14;;;;;;;9.13;3.83;;;;;;;10.47;46.68;100284.89;1657092;86;21515;-54
2022/05/17 01:26:43;;;;;;;9.05;4.65;;;;;;;10.59;45.36;100277.48;1658400;85;21039;-55
2022/05/17 01:29:13;;;;;;;10.10;4.20;;;;;;;10.67;45.12;100279.54;1664124;86;20971;-61
2022/05/17 01:31:43;;;;;;;8.00;4.22;;;;;;;10.76;44.85;100284.34;1664521;86;20996;-55
2022/05/17 01:34:12;;;;;;;9.43;3.72;;;;;;;10.81;44.67;100280.47;1664166;86;21020;-54
2022/05/17 01:36:40;;;;;;;6.92;3.10;;;;;;;10.84;44.43;100281.43;1664060;86;21003;-55
2022/05/17 01:39:09;;;;;;;6.58;3.02;;;;;;;10.87;44.01;100288.40;1663992;86;21055;-54
2022/05/17 01:41:39;;;;;;;5.83;2.37;;;;;;;10.92;43.56;100285.38;1664066;86;21106;-55
2022/05/17 01:44:08;;;;;;;7.03;2.65;;;;;;;10.97;43.10;100290.25;1664048;86;21027;-54
2022/05/17 01:46:37;;;;;;;7.05;3.30;;;;;;;11.00;42.64;100279.72;1641750;86;21110;-54
2022/05/17 01:49:05;;;;;;;6.67;4.03;;;;;;;10.98;42.35;100279.08;1664063;86;21051;-54
2022/05/17 01:51:34;;;;;;;9.30;3.98;;;;;;;10.98;42.31;100285.94;1663929;86;21157;-54
2022/05/17 01:54:03;;;;;;;7.67;4.12;;;;;;;10.95;42.46;100284.97;1664059;86;21463;-55
2022/05/17 01:56:33;;;;;;;7.90;4.92;;;;;;;10.96;42.31;100281.17;1664042;86;21019;-54
2022/05/17 01:59:04;;;;;;;11.97;5.12;;;;;;;10.96;42.22;100279.80;1664021;86;21438;-54
2022/05/17 02:01:34;;;;;;;9.60;3.80;;;;;;;10.98;42.19;100280.97;1664082;86;21435;-56
2022/05/17 02:04:03;;;;;;;5.67;3.30;;;;;;;10.97;42.05;100274.64;1664000;86;20991;-55
2022/05/17 02:06:32;;;;;;;6.03;3.42;;;;;;;10.99;42.06;100274.44;1664178;86;21019;-55
2022/05/17 02:09:02;;;;;;;7.70;2.60;;;;;;;10.97;41.88;100270.53;1664038;86;20964;-56
2022/05/17 02:11:31;;;;;;;6.85;3.10;;;;;;;10.96;41.80;100283.08;1663983;86;21004;-56
2022/05/17 02:14:00;;;;;;;6.12;2.75;;;;;;;10.93;41.91;100276.09;1664014;86;21043;-54
2022/05/17 02:16:29;;;;;;;8.03;1.98;;;;;;;10.97;42.00;100273.80;1663963;86;21031;-58
2022/05/17 02:18:58;;;;;;;4.72;2.30;;;;;;;10.96;41.90;100278.44;1664018;86;21000;-55
2022/05/17 02:21:27;;;;;;;4.47;2.10;;;;;;;10.96;41.91;100281.17;1664047;86;20968;-54
2022/05/17 02:23:55;;;;;;;5.30;2.30;;;;;;;10.96;42.03;100275.69;1664090;86;21019;-55
2022/05/17 02:26:24;;;;;;;6.33;2.30;;;;;;;10.95;41.97;100274.00;1663985;86;21856;-54
2022/05/17 02:28:54;;;;;;;5.75;2.60;;;;;;;10.94;41.91;100277.80;1673748;86;21483;-55
2022/05/17 02:31:24;;;;;;;3.92;2.60;;;;;;;10.90;42.14;100271.02;1696069;84;20995;-55
2022/05/17 02:33:54;;;;;;;4.30;1.98;;;;;;;10.91;42.32;100278.20;1696243;84;21019;-56
2022/05/17 02:36:22;;;;;;;3.33;1.80;;;;;;;10.89;42.33;100271.23;1696078;84;21019;-55
2022/05/17 02:38:51;;;;;;;3.80;1.50;;;;;;;10.86;42.37;100274.37;1696086;84;21047;-55
2022/05/17 02:41:20;;;;;;;5.30;1.80;;;;;;;10.85;42.36;100273.53;1696054;84;20999;-55
2022/05/17 02:43:49;;;;;;;4.17;1.75;;;;;;;10.87;42.36;100275.55;1696103;84;21071;-54
2022/05/17 02:46:18;;;;;;;3.12;1.47;;;;;;;10.87;42.62;100272.80;1696041;84;21003;-55
2022/05/17 02:48:47;;;;;;;2.22;1.02;;;;;;;10.87;42.50;100270.59;1696084;84;21026;-54
2022/05/17 02:51:18;;;;;;;2.12;1.17;;;;;;;10.87;42.31;100268.69;1696066;84;20999;-55
2022/05/17 02:53:47;;;;;;;4.65;1.20;;;;;;;10.92;42.03;100264.81;1696043;84;20999;-55
2022/05/17 02:56:15;;;;;;;4.62;1.05;;;;;;;10.96;41.91;100261.98;1696010;84;21067;-55
2022/05/17 02:58:44;;;;;;;1.62;1.12;;;;;;;11.01;41.98;100256.73;1696087;84;21002;-55
2022/05/17 03:01:13;;;;;;;5.87;1.17;;;;;;;11.06;42.16;100249.30;1696104;84;21027;-55
2022/05/17 03:03:42;;;;;;;3.22;1.00;;;;;;;11.06;42.12;100257.00;1696037;84;21415;-56
2022/05/17 03:06:11;;;;;;;2.50;1.15;;;;;;;11.08;41.91;100257.64;1696044;84;21011;-56
2022/05/17 03:08:41;;;;;;;4.25;1.00;;;;;;;11.16;41.56;100252.51;1696033;84;20987;-54
2022/05/17 03:11:10;;;;;;;2.02;0.90;;;;;;;11.23;41.30;100261.60;1696089;84;21071;-55
2022/05/17 03:13:38;;;;;;;2.67;0.80;;;;;;;11.30;41.25;100249.28;1696051;84;21424;-55
2022/05/17 03:16:07;;;;;;;3.20;1.30;;;;;;;11.35;41.28;100244.02;1696014;84;21015;-56
2022/05/17 03:18:39;;;;;;;3.47;1.12;;;;;;;11.42;41.24;100235.28;1695999;84;20984;-55
2022/05/17 03:21:08;;;;;;;4.40;1.75;;;;;;;11.48;41.17;100230.87;1696017;84;21019;-55
2022/05/17 03:23:37;;;;;;;5.47;1.20;;;;;;;11.53;41.06;100247.55;1696159;84;20975;-55
2022/05/17 03:26:06;;;;;;;5.67;1.30;;;;;;;11.57;40.83;100252.41;1696030;84;21499;-56
2022/05/17 03:28:34;;;;;;;4.65;0.90;;;;;;;11.60;40.60;100250.63;1690420;84;21083;-55
2022/05/17 03:31:08;;;;;;;1.70;1.00;;;;;;;11.64;40.55;100253.27;1688266;85;21012;-54
2022/05/17 03:33:38;;;;;;;1.42;0.68;;;;;;;11.69;40.49;100248.53;1688041;85;21376;-55
2022/05/17 03:36:07;;;;;;;4.03;0.90;;;;;;;11.72;40.36;100246.25;1688265;85;21036;-55
2022/05/17 03:38:36;;;;;;;2.08;0.80;;;;;;;11.74;40.16;100249.63;1688165;85;21007;-54
2022/05/17 03:41:05;;;;;;;2.02;0.80;;;;;;;11.75;40.10;100254.59;1688315;85;21435;-54
2022/05/17 03:43:34;;;;;;;2.33;0.72;;;;;;;11.74;40.09;100256.48;1688218;85;21027;-55
2022/05/17 03:46:03;;;;;;;3.92;0.95;;;;;;;11.75;40.09;100255.96;1688269;85;21011;-57
2022/05/17 03:48:32;;;;;;;1.55;0.78;;;;;;;11.79;40.15;100255.89;1688380;85;21613;-57
2022/05/17 03:51:01;;;;;;;2.85;1.00;;;;;;;11.83;40.12;100246.71;1688211;85;21019;-55
2022/05/17 03:53:29;;;;;;;2.92;0.90;;;;;;;11.84;40.13;100246.50;1688300;85;21094;-56
2022/05/17 03:55:58;;;;;;;2.15;0.90;;;;;;;11.86;40.12;100240.80;1688196;85;21476;-56
2022/05/17 03:58:27;;;;;;;4.37;1.00;;;;;;;11.87;40.14;100247.45;1688240;85;20987;-55
2022/05/17 04:00:55;;;;;;;2.77;0.70;;;;;;;11.90;40.23;100240.70;1688209;85;21003;-56
2022/05/17 04:03:25;;;;;;;1.87;0.90;;;;;;;11.90;40.18;100242.92;1688144;85;21012;-55
2022/05/17 04:05:54;;;;;;;4.72;1.00;;;;;;;11.90;40.21;100233.83;1688304;85;21003;-55
2022/05/17 04:08:23;;;;;;;2.90;0.80;;;;;;;11.92;40.31;100239.44;1688186;85;21008;-56
2022/05/17 04:10:54;;;;;;;1.55;0.80;;;;;;;11.95;40.40;100231.30;1688210;85;21059;-54
2022/05/17 04:13:26;;;;;;;2.02;1.00;;;;;;;12.00;40.27;100242.50;1688096;85;21039;-55
2022/05/17 04:15:55;;;;;;;1.85;0.90;;;;;;;12.01;40.31;100238.17;1688154;85;21040;-55
2022/05/17 04:18:23;;;;;;;3.50;0.90;;;;;;;12.00;40.28;100237.01;1688264;85;21459;-55
2022/05/17 04:21:00;;;;;;;3.05;1.22;;;;;;;12.03;40.38;100232.46;1688235;85;21004;-55
2022/05/17 04:23:29;;;;;;;4.35;1.20;;;;;;;12.06;40.49;100232.04;1688317;85;21028;-54
2022/05/17 04:25:57;;;;;;;2.40;1.20;;;;;;;12.09;40.47;100232.99;1688144;85;21523;-55
2022/05/17 04:28:26;;;;;;;3.37;1.00;;;;;;;12.11;40.64;100219.89;1694528;84;21055;-54
2022/05/17 04:30:55;;;;;;;5.25;1.55;;;;;;;12.15;40.54;100223.90;1701003;84;21007;-56
2022/05/17 04:33:24;;;;;;;3.67;1.10;;;;;;;12.16;40.47;100222.84;1700846;84;21047;-55
2022/05/17 04:35:54;;;;;;;3.08;1.15;;;;;;;12.16;40.69;100222.00;1700844;84;21039;-56
2022/05/17 04:38:23;;;;;;;2.30;1.00;;;;;;;12.20;40.71;100232.35;1700862;84;21026;-55
2022/05/17 04:40:51;;;;;;;2.75;1.00;;;;;;;12.24;40.79;100229.49;1700976;84;21044;-56
2022/05/17 04:43:21;;;;;;;4.37;1.67;;;;;;;12.31;40.77;100233.08;1700821;84;21518;-55
2022/05/17 04:45:51;;;;;;;3.75;1.20;;;;;;;12.38;40.66;100236.69;1700871;84;20968;-55
2022/05/17 04:48:24;;;;;;;3.42;1.05;;;;;;;12.46;40.62;100233.41;1700854;84;21043;-55
2022/05/17 04:50:53;;;;;;;3.05;1.00;;;;;;;12.54;40.69;100240.05;1700958;84;21047;-54
2022/05/17 04:53:23;;;;;;;4.47;1.40;;;;;;;12.62;40.36;100231.57;1700773;83;21038;-54
2022/05/17 04:55:52;;;;;;;4.45;1.75;;;;;;;12.66;40.21;100231.45;1700822;84;21035;-55
2022/05/17 04:58:20;;;;;;;5.67;1.90;;;;;;;12.77;40.42;100224.45;1700813;84;21034;-55
2022/05/17 05:00:49;;;;;;;2.98;1.35;;;;;;;12.88;40.34;100223.24;1700898;84;21011;-55
2022/05/17 05:03:18;;;;;;;4.75;1.25;;;;;;;13.00;40.20;100220.16;1700727;84;21392;-55
2022/05/17 05:05:48;;;;;;;2.40;1.22;;;;;;;13.10;39.68;100230.69;1700807;84;20987;-56
2022/05/17 05:08:17;;;;;;;2.33;1.00;;;;;;;13.16;39.81;100224.84;1700821;84;21015;-56
2022/05/17 05:10:47;;;;;;;2.90;0.90;;;;;;;13.20;39.69;100215.12;1700840;84;21023;-56
2022/05/17 05:13:17;;;;;;;2.08;1.17;;;;;;;13.33;39.53;100217.81;1700954;84;21023;-56
2022/05/17 05:15:47;;;;;;;4.25;1.25;;;;;;;13.55;39.21;100204.02;1700774;84;21027;-55
2022/05/17 05:18:16;;;;;;;3.30;1.10;;;;;;;13.82;38.88;100204.70;1700878;84;20995;-55
2022/05/17 05:20:45;;;;;;;1.82;0.95;;;;;;;14.09;38.62;100213.58;1700857;84;20991;-55
2022/05/17 05:23:14;;;;;;;2.10;0.93;;;;;;;14.33;37.81;100207.77;1700796;84;20991;-55
2022/05/17 05:25:43;;;;;;;4.55;1.30;;;;;;;14.40;37.82;100207.17;1700883;84;20999;-55
2022/05/17 05:28:12;;;;;;;2.58;1.10;;;;;;;14.50;37.85;100208.06;1697472;84;21430;-56
2022/05/17 05:30:41;;;;;;;4.12;1.10;;;;;;;14.62;37.72;100195.73;1688257;85;21016;-55
2022/05/17 05:33:11;;;;;;;4.95;1.30;;;;;;;14.71;37.71;100196.58;1688122;85;21062;-56
2022/05/17 05:35:41;;;;;;;3.22;1.20;;;;;;;14.85;37.56;100200.03;1688198;85;21043;-56
2022/05/17 05:38:11;;;;;;;6.62;1.42;;;;;;;15.10;37.11;100209.61;1688151;85;21431;-55
2022/05/17 05:40:41;;;;;;;3.52;1.30;;;;;;;15.23;36.85;100202.54;1688093;85;20967;-56
2022/05/17 05:43:09;;;;;;;2.87;1.02;;;;;;;15.33;36.89;100201.44;1688158;85;20997;-58
2022/05/17 05:45:38;;;;;;;3.45;1.52;;;;;;;15.53;36.59;100199.77;1687941;85;21011;-56
2022/05/17 05:48:07;;;;;;;6.67;1.52;;;;;;;15.79;36.41;100191.14;1688105;85;20987;-56
2022/05/17 05:50:36;;;;;;;5.78;1.25;;;;;;;16.11;35.78;100194.97;1688145;85;20991;-55
2022/05/17 05:53:09;;;;;;;5.50;1.20;;;;;;;16.26;35.14;100201.44;1688123;85;21019;-57
2022/05/17 05:55:38;;;;;;;2.62;1.35;;;;;;;16.15;35.26;100201.16;1688181;85;21043;-57
2022/05/17 05:58:08;;;;;;;3.25;1.02;;;;;;;16.13;35.55;100201.95;1688116;85;20995;-57
2022/05/17 06:00:38;;;;;;;1.77;0.90;;;;;;;16.37;35.18;100201.98;1688381;85;21043;-56
2022/05/17 06:03:07;;;;;;;4.55;1.10;;;;;;;16.54;35.09;100196.02;1688144;85;20974;-55
2022/05/17 06:05:37;;;;;;;5.78;1.65;;;;;;;16.70;35.10;100199.47;1688108;85;21421;-56
2022/05/17 06:08:06;;;;;;;6.53;1.70;;;;;;;16.84;34.78;100204.19;1688167;85;20996;-56
2022/05/17 06:10:35;;;;;;;5.33;1.62;;;;;;;17.02;34.68;100197.69;1688173;85;20992;-55
2022/05/17 06:13:05;;;;;;;4.33;1.10;;;;;;;17.33;34.41;100201.36;1688385;85;20983;-55
2022/05/17 06:15:34;;;;;;;4.92;1.47;;;;;;;17.61;33.36;100197.78;1688083;85;21434;-56
2022/05/17 06:18:07;;;;;;;5.10;1.60;;;;;;;17.74;33.04;100200.81;1688111;85;21019;-59
2022/05/17 06:20:40;;;;;;;4.00;1.90;;;;;;;17.89;32.65;100190.53;1609253;89;21013;-57
2022/05/17 06:23:10;;;;;;;4.00;1.40;;;;;;;18.20;31.81;100200.20;1609201;89;20978;-56
2022/05/17 06:25:40;;;;;;;6.15;1.62;;;;;;;18.28;31.06;100188.17;1609237;89;21084;-56
2022/05/17 06:28:09;;;;;;;6.47;1.77;;;;;;;18.10;31.64;100180.63;1609035;89;20974;-56
2022/05/17 06:30:38;;;;;;;7.50;2.08;;;;;;;18.08;31.98;100185.59;1609092;89;20970;-56
2022/05/17 06:33:12;;;;;;;3.70;1.72;;;;;;;18.25;31.84;100183.67;1609183;89;21010;-57
2022/05/17 06:35:43;;;;;;;6.00;1.82;;;;;;;18.32;31.01;100176.02;1609192;89;21041;-55
2022/05/17 06:38:13;;;;;;;7.58;2.25;;;;;;;18.35;30.41;100169.41;1628991;85;21020;-55
2022/05/17 06:40:43;;;;;;;4.47;2.02;;;;;;;18.50;30.42;100163.80;1688108;85;21031;-56
2022/05/17 06:43:13;;;;;;;9.63;2.00;;;;;;;18.65;29.93;100173.20;1688054;85;21023;-55
2022/05/17 06:45:43;;;;;;;7.60;2.02;;;;;;;18.71;29.20;100164.95;1688435;85;21099;-56
2022/05/17 06:48:11;;;;;;;8.55;1.98;;;;;;;18.76;28.92;100152.53;1687773;85;21027;-55
2022/05/17 06:50:40;;;;;;;9.10;2.83;;;;;;;18.81;28.99;100160.38;1688077;85;20996;-56
2022/05/17 06:53:10;;;;;;;12.82;2.75;;;;;;;18.99;28.85;100154.53;1688104;85;21467;-55
2022/05/17 06:55:39;;;;;;;5.78;1.95;;;;;;;19.21;28.72;100160.06;1688020;85;21019;-58
2022/05/17 06:58:10;;;;;;;4.40;1.70;;;;;;;19.37;28.04;100156.06;1688271;85;21000;-57
2022/05/17 07:00:38;;;;;;;5.45;2.52;;;;;;;19.59;27.80;100149.96;1688079;85;20968;-56
2022/05/17 07:03:07;;;;;;;4.90;1.85;;;;;;;19.78;26.79;100140.68;1688265;85;21031;-55
2022/05/17 07:05:38;;;;;;;4.00;1.75;;;;;;;19.87;26.49;100149.66;1688107;84;21023;-57
2022/05/17 07:08:07;;;;;;;2.55;1.70;;;;;;;19.97;26.52;100143.89;1688088;85;20992;-56
2022/05/17 07:13:24;;;;;;;4.35;2.00;;;;;;;20.33;26.60;100133.89;1635148;88;21015;-56
2022/05/17 07:15:53;;;;;;;4.00;1.52;;;;;;;20.62;25.98;100132.98;1635046;88;21007;-56
2022/05/17 07:18:24;;;;;;;3.45;1.60;;;;;;;20.66;25.52;100132.72;1635193;88;21468;-55
2022/05/17 07:20:54;;;;;;;5.42;1.90;;;;;;;20.79;25.17;100129.44;1635299;88;21115;-55
2022/05/17 07:23:24;;;;;;;5.10;1.62;;;;;;;20.76;24.36;100129.42;1635252;88;21391;-56
2022/05/17 07:25:54;;;;;;;5.50;1.50;;;;;;;20.70;24.57;100120.77;1635379;88;20963;-57
2022/05/17 07:28:23;;;;;;;4.05;1.40;;;;;;;20.77;24.74;100114.40;1653051;84;21052;-56
2022/05/17 07:30:52;;;;;;;5.87;1.30;;;;;;;20.86;24.23;100130.90;1688210;85;20976;-56
2022/05/17 07:33:21;;;;;;;7.42;1.52;;;;;;;21.02;24.01;100112.84;1688098;85;21047;-56
2022/05/17 07:35:50;;;;;;;6.25;1.20;;;;;;;21.18;24.37;100118.19;1688178;85;21039;-56
2022/05/17 07:38:19;;;;;;;3.10;1.30;;;;;;;21.35;24.09;100108.23;1688356;85;20983;-55
2022/05/17 07:40:50;;;;;;;2.80;1.12;;;;;;;21.42;23.65;100107.40;1688205;85;21262;-56
2022/05/17 07:43:19;;;;;;;2.85;1.17;;;;;;;21.27;23.88;100111.55;1688155;85;20991;-57
2022/05/17 07:45:49;;;;;;;4.50;1.62;;;;;;;21.01;23.71;100113.41;1688145;85;20988;-55
2022/05/17 07:48:20;;;;;;;2.25;1.12;;;;;;;20.64;24.39;100115.45;1688557;85;21418;-56
2022/05/17 07:50:50;;;;;;;3.95;1.17;;;;;;;20.38;24.73;100114.44;1688194;85;20983;-57
2022/05/17 07:53:20;;;;;;;3.33;1.12;;;;;;;20.22;24.91;100102.38;1688162;85;20992;-59
2022/05/17 07:55:50;;;;;;;2.25;0.80;;;;;;;20.11;25.24;100094.50;1688217;85;21017;-55
2022/05/17 07:58:20;;;;;;;2.22;1.10;;;;;;;20.03;25.28;100103.89;1688258;85;20992;-57
2022/05/17 08:00:50;;;;;;;3.70;1.30;;;;;;;19.80;25.38;100111.51;1688163;85;21015;-57
2022/05/17 08:03:19;;;;;;;3.22;0.80;;;;;;;19.53;25.58;100105.99;1688289;85;20988;-57
2022/05/17 08:05:48;;;;;;;4.85;0.78;;;;;;;19.31;25.71;100119.89;1688191;85;21000;-56
2022/05/17 08:08:17;;;;;;;2.77;0.72;;;;;;;19.27;25.41;100118.73;1688159;85;20984;-54
2022/05/17 08:10:45;;;;;;;3.12;0.53;;;;;;;19.47;25.12;100108.37;1688151;85;20980;-59
2022/05/17 08:13:15;;;;;;;2.12;0.72;;;;;;;19.76;24.90;100107.58;1688196;85;21012;-56
2022/05/17 08:15:44;;;;;;;3.40;0.90;;;;;;;20.01;24.96;100105.55;1688132;85;20987;-56
2022/05/17 08:18:13;;;;;;;2.35;0.57;;;;;;;20.28;24.71;100092.96;1688101;85;21388;-56
2022/05/17 08:20:42;;;;;;;2.95;0.50;;;;;;;20.51;24.57;100093.12;1688306;85;20983;-57
2022/05/17 08:23:11;;;;;;;3.50;1.15;;;;;;;20.58;24.52;100076.45;1688115;85;21019;-57
2022/05/17 08:28:28;;;;;;;1.60;0.60;;;;;;;20.25;24.60;100080.98;1688298;85;20991;-57
2022/05/17 08:30:57;;;;;;;9.28;1.15;;;;;;;20.05;24.68;100074.70;1700749;84;21018;-57
2022/05/17 08:33:26;;;;;;;7.25;0.90;;;;;;;19.86;24.76;100087.36;1700858;84;21027;-59
2022/05/17 08:36:01;;;;;;;2.45;0.65;;;;;;;19.66;25.01;100069.97;1700771;84;21031;-57
2022/05/17 08:38:39;;;;;;;2.72;0.60;;;;;;;19.53;25.18;100069.03;1700991;84;21443;-56
2022/05/17 08:41:27;;;;;;;0.60;0.40;;;;;;;19.63;25.50;100057.99;1700764;84;21003;-55
2022/05/17 08:44:02;;;;;;;3.72;0.80;;;;;;;19.96;25.14;100063.80;1700769;84;20999;-60
2022/05/17 08:47:04;;;;;;;4.60;0.70;;;;;;;20.26;24.85;100047.33;1683518;83;21447;-58
2022/05/17 08:49:58;;;;;;;8.40;0.75;;;;;;;20.47;24.57;100067.77;1671807;86;21049;-56
2022/05/17 08:52:27;;;;;;;1.65;0.60;;;;;;;20.55;23.99;100055.28;1648518;86;21042;-57
2022/05/17 08:55:10;;;;;;;2.47;0.50;;;;;;;20.76;24.25;100050.63;1672130;84;21042;-57
2022/05/17 08:57:47;;;;;;;5.70;0.90;;;;;;;21.08;23.46;100042.10;1672260;86;21030;-57
2022/05/17 09:00:23;;;;;;;1.82;0.70;;;;;;;21.34;23.54;100038.83;1647572;86;21026;-57
2022/05/17 09:03:03;;;;;;;5.45;1.65;;;;;;;21.40;23.76;100033.53;1615381;89;20995;-57
2022/05/17 09:05:46;;;;;;;3.02;1.02;;;;;;;21.43;23.86;100032.97;1615339;89;21003;-56
2022/05/17 09:08:41;;;;;;;3.37;0.72;;;;;;;21.40;23.97;100032.14;1615329;89;21516;-57
2022/05/17 09:11:22;;;;;;;2.98;0.80;;;;;;;21.35;24.11;100015.41;1614894;89;21051;-56
2022/05/17 09:14:01;;;;;;;2.92;0.65;;;;;;;21.30;23.75;100027.39;1614963;89;21434;-56
2022/05/17 09:16:35;;;;;;;2.22;0.78;;;;;;;21.09;23.54;100030.69;1626779;87;21153;-57
2022/05/17 09:19:04;;;;;;;2.75;0.80;;;;;;;20.88;23.70;100019.22;1630801;88;21050;-56
2022/05/17 09:21:37;;;;;;;1.47;0.80;;;;;;;20.73;24.07;100028.89;1671109;85;21000;-55
2022/05/17 09:24:14;;;;;;;2.72;0.85;;;;;;;20.50;24.37;100031.60;1688332;85;20992;-57
2022/05/17 09:27:04;;;;;;;4.60;0.90;;;;;;;20.25;24.78;100028.12;1688395;83;20996;-57
2022/05/17 09:29:46;;;;;;;3.72;0.88;;;;;;;19.97;25.21;100024.31;1686213;83;21044;-57
2022/05/17 09:32:30;;;;;;;1.47;0.65;;;;;;;19.79;25.89;100022.25;1670265;86;20990;-58
2022/05/17 09:35:02;;;;;;;3.22;0.70;;;;;;;19.75;26.28;100008.61;1660545;86;21020;-56
2022/05/17 09:37:34;;;;;;;3.02;1.00;;;;;;;19.66;26.03;100028.27;1655952;85;21024;-57
2022/05/17 09:40:07;;;;;;;2.52;1.00;;;;;;;19.45;27.45;100022.20;1657028;86;20992;-57
2022/05/17 09:42:57;;;;;;;3.58;0.88;;;;;;;19.27;27.00;100010.95;1657281;86;21476;-56
2022/05/17 09:45:55;;;;;;;3.40;1.12;;;;;;;19.20;27.05;100019.50;1652522;86;21004;-57
2022/05/17 09:54:38;;;;;;;4.47;1.20;;;;;;;19.17;26.92;100008.08;1657026;86;20973;-56
2022/05/17 09:57:32;;;;;;;3.25;0.93;;;;;;;19.25;27.42;100000.09;1656893;85;21437;-57
2022/05/17 10:00:13;;;;;;;2.72;0.90;;;;;;;19.37;29.05;99990.75;1657114;85;20973;-56
2022/05/17 10:02:52;;;;;;;2.60;0.95;;;;;;;19.51;27.84;99986.44;1657052;86;21012;-56
2022/05/17 10:05:41;;;;;;;9.83;2.00;;;;;;;19.61;27.46;99983.77;1637883;86;21037;-57
2022/05/17 10:08:23;;;;;;;8.43;1.00;;;;;;;19.66;27.04;99975.46;1657218;86;20997;-56
2022/05/17 10:11:20;;;;;;;3.52;0.75;;;;;;;19.59;25.80;99980.42;1657051;86;21026;-57
2022/05/17 10:14:17;;;;;;;5.45;0.80;;;;;;;19.56;25.67;99967.89;1656938;85;20969;-57
2022/05/17 10:16:51;;;;;;;6.37;1.00;;;;;;;19.65;26.00;99975.18;1657020;86;20965;-58
2022/05/17 10:19:36;;;;;;;4.70;2.50;;;;;;;19.72;25.69;99960.48;1656224;86;21440;-58
2022/05/17 10:22:38;;;;;;;3.52;0.90;;;;;;;19.82;25.88;99968.89;1656892;86;21449;-57
2022/05/17 10:25:22;;;;;;;3.50;1.00;;;;;;;19.78;25.93;99965.53;1657222;85;20973;-56
2022/05/17 10:28:08;;;;;;;4.05;0.70;;;;;;;19.79;26.26;99944.41;1656969;85;20953;-56
2022/05/17 10:31:03;;;;;;;5.17;0.78;;;;;;;19.84;26.70;99961.12;1656973;85;21025;-58
2022/05/17 10:34:05;;;;;;;2.87;0.90;;;;;;;19.91;25.71;99944.19;1657022;86;21271;-55
2022/05/17 10:36:50;;;;;;;5.28;1.05;;;;;;;19.80;25.82;99946.63;1656895;86;21000;-55
2022/05/17 10:39:29;;;;;;;1.82;0.90;;;;;;;19.64;26.32;99951.27;1657274;86;20937;-58
2022/05/17 10:41:58;;;;;;;5.47;0.90;;;;;;;19.61;26.70;99943.47;1657216;86;20977;-56
2022/05/17 10:44:38;;;;;;;2.05;0.80;;;;;;;19.66;26.82;99940.72;1657085;86;21013;-57
2022/05/17 10:47:21;;;;;;;5.22;0.80;;;;;;;19.70;26.54;99928.51;1656944;86;21048;-57
2022/05/17 10:49:56;;;;;;;4.25;1.10;;;;;;;19.74;26.37;99928.25;1657239;85;20977;-57
2022/05/17 10:52:57;;;;;;;6.22;0.90;;;;;;;19.80;26.48;99919.67;1657051;85;21040;-57
2022/05/17 10:55:52;;;;;;;5.28;0.80;;;;;;;19.87;26.08;99926.38;1657281;86;21061;-56
2022/05/17 10:58:51;;;;;;;9.70;1.20;;;;;;;19.87;25.92;99907.75;1655933;86;20973;-57
2022/05/17 11:01:32;;;;;;;4.42;0.80;;;;;;;19.86;26.97;99904.69;1656959;86;20949;-56
2022/05/17 11:04:32;;;;;;;17.12;1.42;;;;;;;19.94;26.18;99922.23;1653738;86;20993;-58
2022/05/17 11:07:16;;;;;;;1.67;0.90;;;;;;;20.00;25.32;99903.63;1657037;86;21033;-56
2022/05/17 11:10:30;;;;;;;7.83;1.32;;;;;;;19.98;25.70;99921.70;1625916;86;21020;-57
2022/05/17 11:13:27;;;;;;;6.28;0.90;;;;;;;19.95;25.45;99893.33;1657108;86;20995;-56
2022/05/17 11:16:13;;;;;;;2.12;1.10;;;;;;;19.99;25.65;99896.40;1655638;86;21005;-55
2022/05/17 11:18:50;;;;;;;4.25;1.00;;;;;;;20.06;26.04;99901.70;1657023;86;21456;-55
2022/05/17 11:21:39;;;;;;;2.67;0.80;;;;;;;20.16;26.09;99905.39;1657133;85;21020;-56
2022/05/17 11:24:53;;;;;;;4.20;0.80;;;;;;;20.20;25.92;99898.73;1657080;86;20977;-56
2022/05/17 11:28:02;;;;;;;3.45;0.80;;;;;;;20.11;25.78;99898.39;1656959;86;20961;-55
2022/05/17 11:30:55;;;;;;;10.63;1.50;;;;;;;20.01;25.92;99889.17;1656948;86;21075;-60
2022/05/17 11:33:39;;;;;;;6.45;1.50;;;;;;;19.91;25.86;99883.86;1656764;86;21396;-58
2022/05/17 11:36:33;;;;;;;8.63;1.12;;;;;;;19.89;25.13;99899.97;1656887;86;21005;-56
2022/05/17 11:39:02;;;;;;;6.65;0.80;;;;;;;19.87;23.97;99879.11;1656765;86;21013;-54
2022/05/17 11:41:39;;;;;;;12.68;3.85;;;;;;;19.84;24.61;99877.70;1656778;86;21025;-56
2022/05/17 11:44:20;;;;;;;3.95;0.90;;;;;;;19.89;23.29;99865.22;1657002;86;20979;-57
2022/05/17 11:46:55;;;;;;;6.12;0.80;;;;;;;19.92;23.71;99874.41;1656921;86;21067;-57
2022/05/17 11:49:30;;;;;;;8.15;0.90;;;;;;;19.87;24.35;99863.27;1656759;86;21377;-57
2022/05/17 11:52:08;;;;;;;10.05;1.20;;;;;;;19.79;24.72;99848.50;1656904;86;21028;-56
2022/05/17 11:54:49;;;;;;;3.65;1.37;;;;;;;19.76;24.87;99865.72;1656962;86;21096;-56
2022/05/17 11:57:27;;;;;;;6.08;0.90;;;;;;;19.72;24.63;99865.14;1656753;86;21001;-56
2022/05/17 12:00:04;;;;;;;8.35;1.30;;;;;;;19.66;24.76;99871.23;1656735;86;21008;-58
2022/05/17 12:02:46;;;;;;;7.83;1.57;;;;;;;19.62;24.90;99852.03;1651721;86;21508;-57
2022/05/17 12:05:44;;;;;;;12.98;1.42;;;;;;;19.61;24.86;99863.70;1628628;88;21024;-57
2022/05/17 12:08:43;;;;;;;8.63;2.60;;;;;;;19.59;24.27;99860.36;1655799;86;21004;-57
2022/05/17 12:11:36;;;;;;;8.50;1.52;;;;;;;19.55;23.64;99862.00;1647999;87;21026;-58